createdAt,value
2018-09-01T00:02:54.670Z,102141.81
2018-09-01T00:05:58.905Z,102145.19
2018-09-01T00:09:09.744Z,102142.03
2018-09-01T00:12:14.005Z,102142.97
2018-09-01T00:15:18.212Z,102152.54
2018-09-01T00:18:22.446Z,102147.59
2018-09-01T00:21:26.824Z,102152.12
2018-09-01T00:24:31.040Z,102152.12
2018-09-01T00:27:35.261Z,102154.45
2018-09-01T00:30:39.506Z,102154.03
2018-09-01T00:33:43.729Z,102154.66
2018-09-01T00:36:47.984Z,102162.13
2018-09-01T00:39:52.501Z,102163.80
2018-09-01T00:42:58.872Z,102166.00
2018-09-01T00:46:03.104Z,102171.46
2018-09-01T00:49:07.354Z,102173.45
2018-09-01T00:52:11.585Z,102184.16
2018-09-01T00:55:21.149Z,102186.70
2018-09-01T00:58:25.369Z,102178.80
2018-09-01T01:01:29.580Z,102186.75
2018-09-01T01:04:33.961Z,102188.95
2018-09-01T01:07:38.214Z,102189.58
2018-09-01T01:10:42.434Z,102187.67
2018-09-01T01:13:46.854Z,102185.56
2018-09-01T01:16:51.045Z,102197.62
2018-09-01T01:19:55.304Z,102197.05
2018-09-01T01:22:59.501Z,102190.53
2018-09-01T01:26:03.734Z,102192.89
2018-09-01T01:29:07.997Z,102187.95
2018-09-01T01:32:12.222Z,102197.16
2018-09-01T01:35:16.466Z,102200.80
2018-09-01T01:38:20.693Z,102202.77
2018-09-01T01:41:24.938Z,102208.23
2018-09-01T01:44:29.165Z,102217.56
2018-09-01T01:47:38.433Z,102211.60
2018-09-01T01:50:42.687Z,102214.73
2018-09-01T01:53:46.905Z,102209.69
2018-09-01T01:56:51.250Z,102208.19
2018-09-01T01:59:55.458Z,102200.20
2018-09-01T02:02:59.705Z,102205.35
2018-09-01T02:06:03.912Z,102210.47
2018-09-01T02:09:08.148Z,102211.52
2018-09-01T02:12:12.377Z,102210.66
2018-09-01T02:15:16.612Z,102211.21
2018-09-01T02:18:20.845Z,102211.41
2018-09-01T02:21:25.076Z,102214.85
2018-09-01T02:24:29.508Z,102218.29
2018-09-01T02:27:33.745Z,102226.36
2018-09-01T02:30:37.946Z,102227.38
2018-09-01T02:33:42.192Z,102224.04
2018-09-01T02:36:46.405Z,102226.42
2018-09-01T02:39:50.656Z,102223.79
2018-09-01T02:42:54.877Z,102233.42
2018-09-01T02:45:59.077Z,102229.84
2018-09-01T02:49:03.453Z,102227.72
2018-09-01T02:52:07.681Z,102231.81
2018-09-01T02:55:11.924Z,102234.19
2018-09-01T02:58:16.149Z,102239.22
2018-09-01T03:01:25.540Z,102237.41
2018-09-01T03:04:29.794Z,102239.56
2018-09-01T03:07:34.022Z,102248.45
2018-09-01T03:10:38.248Z,102242.03
2018-09-01T03:13:42.471Z,102246.00
2018-09-01T03:16:46.661Z,102248.39
2018-09-01T03:19:50.893Z,102247.88
2018-09-01T03:22:55.076Z,102248.39
2018-09-01T03:25:59.313Z,102257.50
2018-09-01T03:29:03.541Z,102254.63
2018-09-01T03:32:07.778Z,102262.49
2018-09-01T03:35:12.016Z,102270.66
2018-09-01T03:38:16.251Z,102266.77
2018-09-01T03:41:20.497Z,102269.16
2018-09-01T03:44:24.716Z,102269.04
2018-09-01T03:47:28.937Z,102264.09
2018-09-01T03:50:33.173Z,102261.18
2018-09-01T03:53:37.412Z,102263.70
2018-09-01T03:56:41.640Z,102262.34
2018-09-01T03:59:45.866Z,102256.89
2018-09-01T04:02:50.109Z,102268.64
2018-09-01T04:05:54.316Z,102266.77
2018-09-01T04:08:58.547Z,102266.03
2018-09-01T04:12:02.773Z,102265.41
2018-09-01T04:15:07.599Z,102265.92
2018-09-01T04:18:11.821Z,102265.41
2018-09-01T04:21:16.053Z,102266.23
2018-09-01T04:24:20.272Z,102274.29
2018-09-01T04:27:24.485Z,102275.00
2018-09-01T04:30:28.677Z,102274.37
2018-09-01T04:33:32.910Z,102279.67
2018-09-01T04:36:37.125Z,102280.91
2018-09-01T04:39:41.337Z,102284.85
2018-09-01T04:42:45.565Z,102281.70
2018-09-01T04:45:49.788Z,102288.70
2018-09-01T04:48:54.032Z,102285.33
2018-09-01T04:51:58.257Z,102290.26
2018-09-01T04:55:02.474Z,102287.08
2018-09-01T04:58:06.696Z,102288.63
2018-09-01T05:01:11.099Z,102285.25
2018-09-01T05:04:15.167Z,102292.91
2018-09-01T05:07:19.372Z,102295.63
2018-09-01T05:10:23.589Z,102296.14
2018-09-01T05:13:27.808Z,102295.45
2018-09-01T05:16:32.086Z,102295.02
2018-09-01T05:19:36.305Z,102295.41
2018-09-01T05:22:40.568Z,102297.47
2018-09-01T05:25:44.768Z,102297.55
2018-09-01T05:28:49.037Z,102298.25
2018-09-01T05:31:53.264Z,102313.69
2018-09-01T05:34:57.579Z,102307.51
2018-09-01T05:38:01.776Z,102312.17
2018-09-01T05:41:06.193Z,102315.35
2018-09-01T05:44:10.417Z,102315.78
2018-09-01T05:47:14.621Z,102316.64
2018-09-01T05:50:18.849Z,102318.27
2018-09-01T05:53:23.154Z,102313.09
2018-09-01T05:56:27.367Z,102314.37
2018-09-01T05:59:32.181Z,102324.44
2018-09-01T06:02:36.390Z,102322.20
2018-09-01T06:05:40.621Z,102327.02
2018-09-01T06:08:44.833Z,102323.92
2018-09-01T06:11:49.081Z,102331.97
2018-09-01T06:14:53.305Z,102346.42
2018-09-01T06:17:57.637Z,102348.16
2018-09-01T06:21:01.777Z,102339.83
2018-09-01T06:24:06.415Z,102342.36
2018-09-01T06:27:16.017Z,102348.16
2018-09-01T06:30:26.141Z,102354.80
2018-09-01T06:33:30.480Z,102359.08
2018-09-01T06:36:34.837Z,102365.14
2018-09-01T06:39:39.072Z,102362.51
2018-09-01T06:42:43.324Z,102373.51
2018-09-01T06:45:47.542Z,102375.98
2018-09-01T06:48:52.024Z,102381.48
2018-09-01T06:51:56.245Z,102380.86
2018-09-01T06:55:00.444Z,102379.40
2018-09-01T06:58:04.645Z,102388.69
2018-09-01T07:01:08.882Z,102397.42
2018-09-01T07:04:13.148Z,102402.41
2018-09-01T07:07:17.356Z,102398.20
2018-09-01T07:10:22.048Z,102394.55
2018-09-01T07:13:26.266Z,102398.12
2018-09-01T07:16:30.504Z,102398.16
2018-09-01T07:19:34.738Z,102398.28
2018-09-01T07:22:38.976Z,102404.00
2018-09-01T07:25:43.194Z,102399.16
2018-09-01T07:28:47.425Z,102405.80
2018-09-01T07:31:51.645Z,102405.58
2018-09-01T07:34:55.869Z,102408.82
2018-09-01T07:38:00.109Z,102409.47
2018-09-01T07:41:04.308Z,102409.05
2018-09-01T07:44:08.534Z,102414.62
2018-09-01T07:47:15.627Z,102420.11
2018-09-01T07:50:20.193Z,102423.80
2018-09-01T07:53:25.075Z,102425.96
2018-09-01T07:56:29.633Z,102432.19
2018-09-01T07:59:35.145Z,102424.07
2018-09-01T08:02:39.875Z,102431.45
2018-09-01T08:05:44.593Z,102431.45
2018-09-01T08:08:49.757Z,102437.12
2018-09-01T08:11:54.514Z,102442.80
2018-09-01T08:14:58.793Z,102447.94
2018-09-01T08:18:04.190Z,102443.70
2018-09-01T08:21:09.129Z,102452.04
2018-09-01T08:24:14.198Z,102456.47
2018-09-01T08:27:18.612Z,102462.05
2018-09-01T08:30:22.880Z,102461.91
2018-09-01T08:33:27.164Z,102463.33
2018-09-01T08:36:31.493Z,102467.63
2018-09-01T08:39:35.706Z,102463.96
2018-09-01T08:42:39.926Z,102475.23
2018-09-01T08:45:44.152Z,102471.82
2018-09-01T08:48:48.362Z,102473.08
2018-09-01T08:51:52.600Z,102475.59
2018-09-01T08:54:56.825Z,102472.59
2018-09-01T08:58:01.065Z,102481.16
2018-09-01T09:01:05.297Z,102473.69
2018-09-01T09:04:09.521Z,102475.93
2018-09-01T09:07:13.761Z,102481.84
2018-09-01T09:10:17.985Z,102485.41
2018-09-01T09:13:22.204Z,102485.34
2018-09-01T09:16:26.433Z,102484.20
2018-09-01T09:19:30.667Z,102480.62
2018-09-01T09:22:35.212Z,102478.53
2018-09-01T09:25:39.401Z,102483.00
2018-09-01T09:28:43.613Z,102480.47
2018-09-01T09:31:47.808Z,102486.12
2018-09-01T09:34:52.021Z,102478.40
2018-09-01T09:37:56.249Z,102478.16
2018-09-01T09:41:00.477Z,102480.58
2018-09-01T09:44:04.688Z,102488.07
2018-09-01T09:47:08.901Z,102479.05
2018-09-01T09:50:13.094Z,102479.38
2018-09-01T09:53:17.309Z,102484.84
2018-09-01T09:56:21.485Z,102485.61
2018-09-01T09:59:25.716Z,102488.50
2018-09-01T10:02:29.948Z,102486.70
2018-09-01T10:05:34.217Z,102487.93
2018-09-01T10:08:38.349Z,102485.44
2018-09-01T10:11:43.285Z,102490.03
2018-09-01T10:14:48.326Z,102490.97
2018-09-01T10:17:52.513Z,102490.77
2018-09-01T10:20:56.724Z,102489.45
2018-09-01T10:24:00.929Z,102497.27
2018-09-01T10:27:05.222Z,102493.77
2018-09-01T10:30:09.338Z,102497.97
2018-09-01T10:33:13.545Z,102498.73
2018-09-01T10:36:17.751Z,102489.95
2018-09-01T10:39:21.981Z,102494.60
2018-09-01T10:42:26.169Z,102491.85
2018-09-01T10:45:30.396Z,102491.91
2018-09-01T10:48:34.598Z,102493.29
2018-09-01T10:51:38.977Z,102490.20
2018-09-01T10:54:43.185Z,102487.66
2018-09-01T10:57:47.383Z,102491.13
2018-09-01T11:00:51.595Z,102491.69
2018-09-01T11:03:55.785Z,102490.11
2018-09-01T11:06:59.987Z,102491.80
2018-09-01T11:10:04.216Z,102497.63
2018-09-01T11:13:08.447Z,102497.65
2018-09-01T11:16:12.694Z,102500.66
2018-09-01T11:19:16.896Z,102500.14
2018-09-01T11:22:21.097Z,102509.20
2018-09-01T11:25:25.284Z,102513.65
2018-09-01T11:28:29.485Z,102506.34
2018-09-01T11:31:33.701Z,102510.31
2018-09-01T11:34:37.916Z,102509.05
2018-09-01T11:37:42.110Z,102508.64
2018-09-01T11:40:46.320Z,102514.01
2018-09-01T11:43:50.549Z,102514.21
2018-09-01T11:46:54.736Z,102509.16
2018-09-01T11:49:58.932Z,102507.00
2018-09-01T11:53:03.147Z,102506.27
2018-09-01T11:56:07.337Z,102500.38
2018-09-01T11:59:11.760Z,102498.83
2018-09-01T12:02:15.989Z,102499.08
2018-09-01T12:05:20.176Z,102505.13
2018-09-01T12:08:24.352Z,102510.41
2018-09-01T12:11:28.592Z,102502.86
2018-09-01T12:14:32.797Z,102504.11
2018-09-01T12:17:37.033Z,102507.02
2018-09-01T12:20:41.318Z,102508.41
2018-09-01T12:23:45.521Z,102510.59
2018-09-01T12:26:49.729Z,102503.98
2018-09-01T12:29:53.928Z,102513.77
2018-09-01T12:32:58.121Z,102512.72
2018-09-01T12:36:02.350Z,102506.55
2018-09-01T12:39:06.988Z,102509.84
2018-09-01T12:42:11.266Z,102507.98
2018-09-01T12:45:15.453Z,102501.88
2018-09-01T12:48:19.665Z,102501.32
2018-09-01T12:51:23.881Z,102506.72
2018-09-01T12:54:28.121Z,102504.81
2018-09-01T12:57:32.323Z,102497.01
2018-09-01T13:00:36.571Z,102492.41
2018-09-01T13:03:40.725Z,102495.78
2018-09-01T13:06:44.941Z,102501.23
2018-09-01T13:09:49.193Z,102499.50
2018-09-01T13:12:53.382Z,102498.98
2018-09-01T13:15:57.607Z,102492.23
2018-09-01T13:19:02.145Z,102497.48
2018-09-01T13:22:06.397Z,102493.99
2018-09-01T13:25:10.656Z,102499.08
2018-09-01T13:28:14.844Z,102500.34
2018-09-01T13:31:19.054Z,102496.06
2018-09-01T13:34:23.300Z,102503.54
2018-09-01T13:37:27.920Z,102507.38
2018-09-01T13:40:32.156Z,102508.37
2018-09-01T13:43:36.353Z,102515.58
2018-09-01T13:46:40.577Z,102513.06
2018-09-01T13:49:44.758Z,102514.43
2018-09-01T13:52:48.968Z,102514.09
2018-09-01T13:55:53.161Z,102519.08
2018-09-01T13:58:57.348Z,102521.59
2018-09-01T14:02:01.670Z,102518.29
2018-09-01T14:05:05.892Z,102523.81
2018-09-01T14:08:10.089Z,102522.43
2018-09-01T14:11:14.276Z,102525.27
2018-09-01T14:14:18.495Z,102521.42
2018-09-01T14:17:22.699Z,102533.33
2018-09-01T14:20:26.897Z,102527.16
2018-09-01T14:23:31.101Z,102521.11
2018-09-01T14:26:35.318Z,102514.39
2018-09-01T14:29:39.512Z,102517.59
2018-09-01T14:32:43.733Z,102520.84
2018-09-01T14:35:47.947Z,102527.89
2018-09-01T14:38:52.236Z,102519.05
2018-09-01T14:41:56.406Z,102523.34
2018-09-01T14:45:00.605Z,102530.35
2018-09-01T14:48:04.817Z,102528.57
2018-09-01T14:51:09.045Z,102519.52
2018-09-01T14:54:16.933Z,102519.45
2018-09-01T14:57:22.963Z,102514.69
2018-09-01T15:00:28.376Z,102512.74
2018-09-01T15:03:33.931Z,102519.32
2018-09-01T15:06:39.251Z,102520.65
2018-09-01T15:09:44.086Z,102522.49
2018-09-01T15:12:50.229Z,102521.65
2018-09-01T15:15:56.481Z,102520.67
2018-09-01T15:19:01.928Z,102524.03
2018-09-01T15:22:06.936Z,102527.39
2018-09-01T15:25:13.403Z,102530.20
2018-09-01T15:28:18.907Z,102531.83
2018-09-01T15:31:25.016Z,102534.09
2018-09-01T15:34:33.012Z,102538.31
2018-09-01T15:37:38.564Z,102541.71
2018-09-01T15:40:43.529Z,102548.00
2018-09-01T15:43:50.444Z,102545.32
2018-09-01T15:46:56.086Z,102545.34
2018-09-01T15:50:01.017Z,102538.34
2018-09-01T15:53:06.192Z,102539.16
2018-09-01T15:56:10.944Z,102545.22
2018-09-01T15:59:15.809Z,102543.58
2018-09-01T16:02:27.384Z,102547.26
2018-09-01T16:05:32.064Z,102541.89
2018-09-01T16:08:36.301Z,102548.55
2018-09-01T16:11:40.484Z,102544.53
2018-09-01T16:14:44.681Z,102547.06
2018-09-01T16:17:49.220Z,102548.55
2018-09-01T16:20:53.451Z,102550.24
2018-09-01T16:23:57.652Z,102547.14
2018-09-01T16:27:01.871Z,102544.77
2018-09-01T16:30:06.100Z,102550.04
2018-09-01T16:33:10.313Z,102559.55
2018-09-01T16:36:14.509Z,102556.89
2018-09-01T16:39:18.715Z,102558.28
2018-09-01T16:42:22.908Z,102553.15
2018-09-01T16:45:27.102Z,102556.89
2018-09-01T16:48:31.323Z,102556.59
2018-09-01T16:51:35.534Z,102553.77
2018-09-01T16:54:39.741Z,102557.31
2018-09-01T16:57:44.008Z,102558.78
2018-09-01T17:00:48.298Z,102559.87
2018-09-01T17:03:52.436Z,102553.57
2018-09-01T17:06:56.645Z,102545.92
2018-09-01T17:10:00.853Z,102557.12
2018-09-01T17:13:05.217Z,102555.80
2018-09-01T17:16:09.445Z,102555.91
2018-09-01T17:19:13.648Z,102558.45
2018-09-01T17:22:17.873Z,102558.87
2018-09-01T17:25:22.081Z,102561.18
2018-09-01T17:28:26.359Z,102556.09
2018-09-01T17:31:30.554Z,102560.85
2018-09-01T17:34:34.771Z,102568.69
2018-09-01T17:37:39.000Z,102564.66
2018-09-01T17:40:43.205Z,102562.55
2018-09-01T17:43:47.428Z,102567.92
2018-09-01T17:46:51.596Z,102574.37
2018-09-01T17:49:55.801Z,102569.80
2018-09-01T17:52:59.987Z,102577.91
2018-09-01T17:56:04.205Z,102579.70
2018-09-01T17:59:08.400Z,102575.95
2018-09-01T18:02:13.715Z,102584.28
2018-09-01T18:05:17.865Z,102590.10
2018-09-01T18:08:22.077Z,102589.03
2018-09-01T18:11:26.276Z,102596.28
2018-09-01T18:14:30.749Z,102604.18
2018-09-01T18:17:34.945Z,102603.17
2018-09-01T18:20:39.173Z,102606.91
2018-09-01T18:23:43.373Z,102609.53
2018-09-01T18:26:47.709Z,102605.86
2018-09-01T18:29:51.896Z,102606.91
2018-09-01T18:32:56.112Z,102606.28
2018-09-01T18:36:00.330Z,102611.49
2018-09-01T18:39:06.026Z,102615.22
2018-09-01T18:42:10.225Z,102619.28
2018-09-01T18:45:14.465Z,102617.73
2018-09-01T18:48:18.665Z,102623.99
2018-09-01T18:51:22.889Z,102622.71
2018-09-01T18:54:27.097Z,102621.84
2018-09-01T18:57:31.285Z,102628.60
2018-09-01T19:00:35.501Z,102630.37
2018-09-01T19:03:39.728Z,102632.88
2018-09-01T19:06:43.957Z,102635.37
2018-09-01T19:09:48.141Z,102629.58
2018-09-01T19:12:52.372Z,102638.42
2018-09-01T19:15:56.561Z,102629.91
2018-09-01T19:19:00.769Z,102636.82
2018-09-01T19:22:04.956Z,102640.67
2018-09-01T19:25:09.366Z,102640.19
2018-09-01T19:28:13.677Z,102638.73
2018-09-01T19:31:17.909Z,102642.80
2018-09-01T19:34:22.105Z,102640.41
2018-09-01T19:37:26.313Z,102645.70
2018-09-01T19:40:30.509Z,102644.58
2018-09-01T19:43:34.732Z,102650.27
2018-09-01T19:46:38.920Z,102655.47
2018-09-01T19:49:43.124Z,102653.08
2018-09-01T19:52:47.333Z,102656.47
2018-09-01T19:55:51.547Z,102658.48
2018-09-01T19:58:55.800Z,102663.13
2018-09-01T20:02:00.382Z,102661.77
2018-09-01T20:05:04.700Z,102661.90
2018-09-01T20:08:08.858Z,102666.95
2018-09-01T20:11:13.048Z,102666.23
2018-09-01T20:14:17.236Z,102664.56
2018-09-01T20:17:21.453Z,102671.20
2018-09-01T20:20:25.657Z,102672.69
2018-09-01T20:23:29.867Z,102671.20
2018-09-01T20:26:34.081Z,102673.63
2018-09-01T20:29:38.300Z,102668.48
2018-09-01T20:32:42.516Z,102670.58
2018-09-01T20:35:52.012Z,102676.69
2018-09-01T20:38:56.233Z,102675.31
2018-09-01T20:42:00.430Z,102675.43
2018-09-01T20:45:04.729Z,102675.00
2018-09-01T20:48:08.900Z,102676.58
2018-09-01T20:51:13.117Z,102677.48
2018-09-01T20:54:17.346Z,102679.58
2018-09-01T20:57:21.542Z,102681.58
2018-09-01T21:00:25.732Z,102687.16
2018-09-01T21:03:29.907Z,102689.77
2018-09-01T21:06:34.107Z,102687.66
2018-09-01T21:09:38.329Z,102686.92
2018-09-01T21:12:42.537Z,102694.83
2018-09-01T21:15:46.724Z,102694.18
2018-09-01T21:18:50.933Z,102693.16
2018-09-01T21:21:55.138Z,102691.88
2018-09-01T21:24:59.352Z,102688.94
2018-09-01T21:28:03.652Z,102688.21
2018-09-01T21:31:07.837Z,102685.57
2018-09-01T21:34:12.074Z,102689.47
2018-09-01T21:37:16.255Z,102689.56
2018-09-01T21:40:20.467Z,102697.48
2018-09-01T21:43:24.681Z,102695.38
2018-09-01T21:46:28.901Z,102699.16
2018-09-01T21:49:33.126Z,102700.66
2018-09-01T21:52:37.356Z,102704.63
2018-09-01T21:55:41.560Z,102700.63
2018-09-01T21:58:45.775Z,102702.73
2018-09-01T22:01:55.237Z,102701.15
2018-09-01T22:05:04.637Z,102706.42
2018-09-01T22:08:08.850Z,102702.52
2018-09-01T22:11:13.067Z,102699.27
2018-09-01T22:14:17.273Z,102697.69
2018-09-01T22:17:22.160Z,102696.31
2018-09-01T22:20:26.365Z,102697.04
2018-09-01T22:23:30.569Z,102706.62
2018-09-01T22:26:34.761Z,102704.23
2018-09-01T22:29:39.016Z,102704.23
2018-09-01T22:32:43.245Z,102700.12
2018-09-01T22:35:47.448Z,102701.59
2018-09-01T22:38:51.673Z,102700.31
2018-09-01T22:41:55.887Z,102701.51
2018-09-01T22:45:00.126Z,102704.98
2018-09-01T22:48:04.355Z,102698.45
2018-09-01T22:51:08.584Z,102698.66
2018-09-01T22:54:12.778Z,102698.43
2018-09-01T22:57:17.097Z,102701.37
2018-09-01T23:00:21.317Z,102702.23
2018-09-01T23:03:25.501Z,102704.84
2018-09-01T23:06:29.697Z,102701.15
2018-09-01T23:09:33.904Z,102708.63
2018-09-01T23:12:38.533Z,102709.17
2018-09-01T23:15:42.699Z,102707.15
2018-09-01T23:18:46.919Z,102711.98
2018-09-01T23:21:51.105Z,102713.05
2018-09-01T23:24:55.332Z,102713.25
2018-09-01T23:27:59.534Z,102708.39
2018-09-01T23:31:03.789Z,102703.34
2018-09-01T23:34:08.002Z,102695.64
2018-09-01T23:37:12.210Z,102698.34
2018-09-01T23:40:16.419Z,102695.30
2018-09-01T23:43:20.645Z,102697.08
2018-09-01T23:46:24.869Z,102702.84
2018-09-01T23:49:29.105Z,102700.30
2018-09-01T23:52:33.278Z,102700.72
2018-09-01T23:55:37.505Z,102700.92
2018-09-01T23:58:41.710Z,102698.91
